createdAt,value
2023-05-22T00:00:52.611Z,14.99
2023-05-22T00:01:47.817Z,14.98
2023-05-22T00:02:43.425Z,14.97
2023-05-22T00:03:37.930Z,14.98
2023-05-22T00:04:32.931Z,14.96
2023-05-22T00:06:53.526Z,14.60
2023-05-22T00:07:48.839Z,14.79
2023-05-22T00:08:43.889Z,14.86
2023-05-22T00:09:39.122Z,14.89
2023-05-22T00:10:34.298Z,14.89
2023-05-22T00:11:29.608Z,14.89
2023-05-22T00:12:25.165Z,14.89
2023-05-22T00:13:20.366Z,14.89
2023-05-22T00:14:15.553Z,14.87
2023-05-22T00:15:10.693Z,14.86
2023-05-22T00:16:05.950Z,14.85
2023-05-22T00:17:01.298Z,14.83
2023-05-22T00:17:56.411Z,14.81
2023-05-22T00:18:51.623Z,14.81
2023-05-22T00:19:46.744Z,14.81
2023-05-22T00:20:41.930Z,14.80
2023-05-22T00:21:37.092Z,14.77
2023-05-22T00:22:32.317Z,14.74
2023-05-22T00:23:27.457Z,14.73
2023-05-22T00:24:22.608Z,14.72
2023-05-22T00:25:17.783Z,14.70
2023-05-22T00:26:12.916Z,14.69
2023-05-22T00:27:08.229Z,14.66
2023-05-22T00:28:03.472Z,14.63
2023-05-22T00:28:58.634Z,14.60
2023-05-22T00:29:53.834Z,14.57
2023-05-22T00:30:49.033Z,14.54
2023-05-22T00:31:44.235Z,14.50
2023-05-22T00:32:39.594Z,14.47
2023-05-22T00:33:34.875Z,14.47
2023-05-22T00:34:30.007Z,14.46
2023-05-22T00:35:25.072Z,14.44
2023-05-22T00:36:20.308Z,14.42
2023-05-22T00:37:15.594Z,14.40
2023-05-22T00:38:10.705Z,14.38
2023-05-22T00:39:05.916Z,14.36
2023-05-22T00:40:01.268Z,14.34
2023-05-22T00:40:56.390Z,14.34
2023-05-22T00:41:51.595Z,14.34
2023-05-22T00:42:46.794Z,14.34
2023-05-22T00:43:42.197Z,14.33
2023-05-22T00:44:37.215Z,14.32
2023-05-22T00:45:32.450Z,14.31
2023-05-22T00:46:27.747Z,14.30
2023-05-22T00:47:23.074Z,14.30
2023-05-22T00:48:18.121Z,14.28
2023-05-22T00:49:13.321Z,14.28
2023-05-22T00:50:08.501Z,14.28
2023-05-22T00:51:03.844Z,14.29
2023-05-22T00:51:58.978Z,14.28
2023-05-22T00:52:54.168Z,14.26
2023-05-22T00:53:49.323Z,14.24
2023-05-22T00:54:44.481Z,14.23
2023-05-22T00:55:39.678Z,14.23
2023-05-22T00:56:34.909Z,14.22
2023-05-22T00:57:30.237Z,14.20
2023-05-22T00:58:25.485Z,14.20
2023-05-22T00:59:20.387Z,14.19
2023-05-22T01:00:15.599Z,14.20
2023-05-22T01:01:10.723Z,14.20
2023-05-22T01:02:05.924Z,14.20
2023-05-22T01:03:01.112Z,14.18
2023-05-22T01:03:56.396Z,14.18
2023-05-22T01:04:51.255Z,14.17
2023-05-22T01:05:46.524Z,14.17
2023-05-22T01:06:41.698Z,14.17
2023-05-22T01:07:36.983Z,14.17
2023-05-22T01:08:32.206Z,14.14
2023-05-22T01:09:27.281Z,14.13
2023-05-22T01:10:23.398Z,14.11
2023-05-22T01:11:17.733Z,14.07
2023-05-22T01:12:12.881Z,14.05
2023-05-22T01:13:08.061Z,14.03
2023-05-22T01:14:03.274Z,14.01
2023-05-22T01:14:58.580Z,13.99
2023-05-22T01:15:53.620Z,13.97
2023-05-22T01:16:48.860Z,13.94
2023-05-22T01:17:44.000Z,13.94
2023-05-22T01:18:39.328Z,13.93
2023-05-22T01:19:34.460Z,13.90
2023-05-22T01:20:29.757Z,13.90
2023-05-22T01:21:24.883Z,13.90
2023-05-22T01:22:20.044Z,13.89
2023-05-22T01:23:15.260Z,13.87
2023-05-22T01:24:10.524Z,13.84
2023-05-22T01:25:05.695Z,13.82
2023-05-22T01:26:00.847Z,13.80
2023-05-22T01:26:55.974Z,13.78
2023-05-22T01:27:51.156Z,13.78
2023-05-22T01:28:46.508Z,13.76
2023-05-22T01:29:41.582Z,13.74
2023-05-22T01:30:37.000Z,13.72
2023-05-22T01:31:32.058Z,13.70
2023-05-22T01:32:27.404Z,13.66
2023-05-22T01:33:22.731Z,13.63
2023-05-22T01:34:18.992Z,13.61
2023-05-22T01:35:14.162Z,13.62
2023-05-22T01:36:09.370Z,13.61
2023-05-22T01:37:04.622Z,13.59
2023-05-22T01:38:00.565Z,13.58
2023-05-22T01:38:55.625Z,13.56
2023-05-22T01:39:50.811Z,13.55
2023-05-22T01:40:46.048Z,13.53
2023-05-22T01:41:41.234Z,13.52
2023-05-22T01:42:36.402Z,13.51
2023-05-22T01:43:31.778Z,13.49
2023-05-22T01:44:26.953Z,13.45
2023-05-22T01:45:22.153Z,13.45
2023-05-22T01:46:17.228Z,13.45
2023-05-22T01:47:12.275Z,13.42
2023-05-22T01:48:07.526Z,13.43
2023-05-22T01:49:02.368Z,13.45
2023-05-22T01:50:01.988Z,13.47
2023-05-22T01:50:57.181Z,13.44
2023-05-22T01:51:52.232Z,13.45
2023-05-22T01:52:47.578Z,13.46
2023-05-22T01:53:42.790Z,13.46
2023-05-22T01:54:37.874Z,13.48
2023-05-22T01:55:33.017Z,13.49
2023-05-22T01:56:28.245Z,13.50
2023-05-22T01:57:23.632Z,13.50
2023-05-22T01:58:18.725Z,13.51
2023-05-22T01:59:13.930Z,13.50
2023-05-22T02:00:09.175Z,13.49
2023-05-22T02:01:05.276Z,13.49
2023-05-22T02:02:00.188Z,13.46
2023-05-22T02:02:55.383Z,13.43
2023-05-22T02:03:51.217Z,13.42
2023-05-22T02:04:46.429Z,13.45
2023-05-22T02:05:41.803Z,13.43
2023-05-22T02:06:37.871Z,13.42
2023-05-22T02:07:33.119Z,13.40
2023-05-22T02:08:28.984Z,13.38
2023-05-22T02:09:24.138Z,13.37
2023-05-22T02:10:19.434Z,13.35
2023-05-22T02:11:15.197Z,13.34
2023-05-22T02:12:10.388Z,13.34
2023-05-22T02:13:06.228Z,13.36
2023-05-22T02:14:01.454Z,13.35
2023-05-22T02:14:56.790Z,13.34
2023-05-22T02:15:52.515Z,13.33
2023-05-22T02:16:47.628Z,13.34
2023-05-22T02:17:42.745Z,13.33
2023-05-22T02:18:39.114Z,13.33
2023-05-22T02:19:34.349Z,13.33
2023-05-22T02:20:30.163Z,13.32
2023-05-22T02:21:25.299Z,13.34
2023-05-22T02:22:20.552Z,13.34
2023-05-22T02:23:16.429Z,13.32
2023-05-22T02:24:11.526Z,13.31
2023-05-22T02:25:07.276Z,13.30
2023-05-22T02:26:02.450Z,13.28
2023-05-22T02:26:57.667Z,13.27
2023-05-22T02:27:53.472Z,13.27
2023-05-22T02:28:48.767Z,13.25
2023-05-22T02:29:44.079Z,13.23
2023-05-22T02:30:40.493Z,13.21
2023-05-22T02:31:35.624Z,13.20
2023-05-22T02:32:31.408Z,13.20
2023-05-22T02:33:26.659Z,13.21
2023-05-22T02:34:21.802Z,13.19
2023-05-22T02:35:17.687Z,13.17
2023-05-22T02:36:12.945Z,13.13
2023-05-22T02:37:08.870Z,13.10
2023-05-22T02:38:03.980Z,13.07
2023-05-22T02:38:59.317Z,13.04
2023-05-22T02:39:55.175Z,13.02
2023-05-22T02:40:50.263Z,13.05
2023-05-22T02:41:45.522Z,13.06
2023-05-22T02:42:41.974Z,13.05
2023-05-22T02:43:37.171Z,13.05
2023-05-22T02:44:32.981Z,13.06
2023-05-22T02:45:28.158Z,13.07
2023-05-22T02:46:23.629Z,13.09
2023-05-22T02:47:19.159Z,13.11
2023-05-22T02:48:14.535Z,13.13
2023-05-22T02:49:10.144Z,13.16
2023-05-22T02:50:05.295Z,13.17
2023-05-22T02:51:00.653Z,13.17
2023-05-22T02:51:56.365Z,13.19
2023-05-22T02:52:51.758Z,13.22
2023-05-22T02:53:46.866Z,13.23
2023-05-22T02:54:43.323Z,13.24
2023-05-22T02:55:38.576Z,13.25
2023-05-22T02:56:34.339Z,13.26
2023-05-22T02:57:29.661Z,13.26
2023-05-22T02:58:24.607Z,13.25
2023-05-22T02:59:20.435Z,13.24
2023-05-22T03:00:15.663Z,13.25
2023-05-22T03:01:10.916Z,13.29
2023-05-22T03:02:06.250Z,13.31
2023-05-22T03:03:01.441Z,13.33
2023-05-22T03:03:57.830Z,13.34
2023-05-22T03:04:52.935Z,13.36
2023-05-22T03:05:48.688Z,13.38
2023-05-22T03:06:43.834Z,13.40
2023-05-22T03:07:39.122Z,13.38
2023-05-22T03:08:34.782Z,13.38
2023-05-22T03:09:30.034Z,13.38
2023-05-22T03:10:25.822Z,13.37
2023-05-22T03:11:21.000Z,13.36
2023-05-22T03:12:16.278Z,13.34
2023-05-22T03:13:12.218Z,13.32
2023-05-22T03:14:07.444Z,13.33
2023-05-22T03:15:02.653Z,13.33
2023-05-22T03:15:59.118Z,13.34
2023-05-22T03:16:54.305Z,13.35
2023-05-22T03:17:49.723Z,13.37
2023-05-22T03:18:44.730Z,13.38
2023-05-22T03:19:42.277Z,13.39
2023-05-22T03:20:37.543Z,13.37
2023-05-22T03:21:32.840Z,13.36
2023-05-22T03:22:28.615Z,13.34
2023-05-22T03:23:23.733Z,13.34
2023-05-22T03:24:19.064Z,13.31
2023-05-22T03:25:14.231Z,13.30
2023-05-22T03:26:09.189Z,13.27
2023-05-22T03:27:04.274Z,13.28
2023-05-22T03:27:59.348Z,13.24
2023-05-22T03:28:54.402Z,13.24
2023-05-22T03:29:49.410Z,13.19
2023-05-22T03:30:44.465Z,13.19
2023-05-22T03:31:39.503Z,13.16
2023-05-22T03:32:34.581Z,13.17
2023-05-22T03:33:29.547Z,13.15
2023-05-22T03:34:24.586Z,13.16
2023-05-22T03:35:19.674Z,13.15
2023-05-22T03:36:14.781Z,13.14
2023-05-22T03:37:09.889Z,13.13
2023-05-22T03:38:09.785Z,13.12
2023-05-22T03:39:04.941Z,13.13
2023-05-22T03:40:00.421Z,13.14
2023-05-22T03:40:56.085Z,13.14
2023-05-22T03:41:51.467Z,13.14
2023-05-22T03:42:46.893Z,13.13
2023-05-22T03:43:45.051Z,13.10
2023-05-22T03:44:38.323Z,13.09
2023-05-22T03:45:34.155Z,13.08
2023-05-22T03:46:29.692Z,13.08
2023-05-22T03:47:24.943Z,13.06
2023-05-22T03:48:20.581Z,13.03
2023-05-22T03:49:16.990Z,13.03
2023-05-22T03:50:11.701Z,13.03
2023-05-22T03:51:07.110Z,13.01
2023-05-22T03:52:02.379Z,12.99
2023-05-22T03:52:58.228Z,12.98
2023-05-22T03:53:53.511Z,12.98
2023-05-22T03:54:48.875Z,12.96
2023-05-22T03:55:45.035Z,12.96
2023-05-22T03:56:40.390Z,12.95
2023-05-22T03:57:36.341Z,12.95
2023-05-22T03:58:31.491Z,12.96
2023-05-22T03:59:26.719Z,12.95
2023-05-22T04:00:22.557Z,12.92
2023-05-22T04:01:17.897Z,12.90
2023-05-22T04:02:14.040Z,12.92
2023-05-22T04:03:09.060Z,12.93
2023-05-22T04:04:04.321Z,12.93
2023-05-22T04:05:00.193Z,12.93
2023-05-22T04:05:55.453Z,12.95
2023-05-22T04:06:50.849Z,12.95
2023-05-22T04:07:47.137Z,12.93
2023-05-22T04:08:42.317Z,12.93
2023-05-22T04:09:38.188Z,12.94
2023-05-22T04:10:33.522Z,12.96
2023-05-22T04:11:29.120Z,12.94
2023-05-22T04:12:24.753Z,12.93
2023-05-22T04:13:20.112Z,12.94
2023-05-22T04:14:15.853Z,12.95
2023-05-22T04:15:11.306Z,12.95
2023-05-22T04:16:06.766Z,12.95
2023-05-22T04:17:02.398Z,12.94
2023-05-22T04:17:57.707Z,12.94
2023-05-22T04:18:53.088Z,12.93
2023-05-22T04:19:49.337Z,12.92
2023-05-22T04:20:44.830Z,12.92
2023-05-22T04:21:40.592Z,12.92
2023-05-22T04:22:35.916Z,12.94
2023-05-22T04:23:31.238Z,12.95
2023-05-22T04:24:26.994Z,12.96
2023-05-22T04:25:22.322Z,12.99
2023-05-22T04:26:18.083Z,13.03
2023-05-22T04:27:13.580Z,13.05
2023-05-22T04:28:08.781Z,13.07
2023-05-22T04:29:04.491Z,13.09
2023-05-22T04:30:00.020Z,13.12
2023-05-22T04:30:55.290Z,13.14
2023-05-22T04:31:51.661Z,13.16
2023-05-22T04:32:47.058Z,13.18
2023-05-22T04:33:42.805Z,13.21
2023-05-22T04:34:38.083Z,13.25
2023-05-22T04:35:33.565Z,13.26
2023-05-22T04:36:28.911Z,13.28
2023-05-22T04:37:24.873Z,13.30
2023-05-22T04:38:19.948Z,13.30
2023-05-22T04:39:15.455Z,13.31
2023-05-22T04:40:11.160Z,13.32
2023-05-22T04:41:06.563Z,13.35
2023-05-22T04:42:01.881Z,13.38
2023-05-22T04:42:58.515Z,13.40
2023-05-22T04:43:53.828Z,13.42
2023-05-22T04:44:49.652Z,13.44
2023-05-22T04:45:45.009Z,13.49
2023-05-22T04:46:40.784Z,13.52
2023-05-22T04:47:36.340Z,13.53
2023-05-22T04:48:31.708Z,13.54
2023-05-22T04:49:27.630Z,13.57
2023-05-22T04:50:22.892Z,13.60
2023-05-22T04:51:18.260Z,13.61
2023-05-22T04:52:14.076Z,13.64
2023-05-22T04:53:09.467Z,13.68
2023-05-22T04:54:04.809Z,13.70
2023-05-22T04:55:01.169Z,13.72
2023-05-22T04:55:55.726Z,13.73
2023-05-22T04:56:54.727Z,13.74
2023-05-22T04:57:49.854Z,13.75
2023-05-22T04:58:45.206Z,13.76
2023-05-22T04:59:41.015Z,13.79
2023-05-22T05:00:36.328Z,13.83
2023-05-22T05:01:33.477Z,13.87
2023-05-22T05:02:27.988Z,13.89
2023-05-22T05:03:23.442Z,13.92
2023-05-22T05:04:19.254Z,13.97
2023-05-22T05:05:14.675Z,14.03
2023-05-22T05:06:10.029Z,14.08
2023-05-22T05:07:05.920Z,14.12
2023-05-22T05:08:01.262Z,14.16
2023-05-22T05:08:57.180Z,14.22
2023-05-22T05:09:52.427Z,14.25
2023-05-22T05:10:47.953Z,14.29
2023-05-22T05:11:43.708Z,14.31
2023-05-22T05:12:39.118Z,14.35
2023-05-22T05:13:34.466Z,14.36
2023-05-22T05:14:30.837Z,14.38
2023-05-22T05:15:26.233Z,14.39
2023-05-22T05:16:22.083Z,14.41
2023-05-22T05:17:17.485Z,14.45
2023-05-22T05:18:12.976Z,14.48
2023-05-22T05:19:08.732Z,14.51
2023-05-22T05:20:04.162Z,14.55
2023-05-22T05:21:00.068Z,14.59
2023-05-22T05:21:55.335Z,14.62
2023-05-22T05:22:50.757Z,14.64
2023-05-22T05:23:46.700Z,14.68
2023-05-22T05:24:42.031Z,14.73
2023-05-22T05:25:37.562Z,14.75
2023-05-22T05:26:33.870Z,14.79
2023-05-22T05:27:29.313Z,14.83
2023-05-22T05:28:25.128Z,14.87
2023-05-22T05:29:20.623Z,14.91
2023-05-22T05:30:17.601Z,14.94
2023-05-22T05:31:11.726Z,14.97
2023-05-22T05:32:07.123Z,15.02
2023-05-22T05:33:03.022Z,15.07
2023-05-22T05:33:58.292Z,15.10
2023-05-22T05:34:53.829Z,15.13
2023-05-22T05:35:49.584Z,15.16
2023-05-22T05:36:44.964Z,15.19
2023-05-22T05:37:40.370Z,15.24
2023-05-22T05:38:36.747Z,15.28
2023-05-22T05:39:32.214Z,15.31
2023-05-22T05:40:27.999Z,15.36
2023-05-22T05:41:23.699Z,15.43
2023-05-22T05:42:19.036Z,15.48
2023-05-22T05:43:14.902Z,15.51
2023-05-22T05:44:10.277Z,15.55
2023-05-22T05:45:05.683Z,15.61
2023-05-22T05:46:01.439Z,15.68
2023-05-22T05:46:57.015Z,15.75
2023-05-22T05:47:52.713Z,15.82
2023-05-22T05:48:48.092Z,15.89
2023-05-22T05:49:43.438Z,15.94
2023-05-22T05:50:39.464Z,16.02
2023-05-22T05:51:34.751Z,16.10
2023-05-22T05:52:30.278Z,16.17
2023-05-22T05:53:26.352Z,16.23
2023-05-22T05:54:21.896Z,16.29
2023-05-22T05:55:17.676Z,16.35
2023-05-22T05:56:13.114Z,16.43
2023-05-22T05:57:08.464Z,16.47
2023-05-22T05:58:04.323Z,16.52
2023-05-22T05:58:59.752Z,16.60
2023-05-22T05:59:55.400Z,16.66
2023-05-22T06:00:50.818Z,16.73
2023-05-22T06:01:46.523Z,16.81
2023-05-22T06:02:42.890Z,16.86
2023-05-22T06:03:38.579Z,16.92
2023-05-22T06:04:33.723Z,16.94
2023-05-22T06:05:32.543Z,16.97
2023-05-22T06:06:28.041Z,17.02
2023-05-22T06:07:23.609Z,17.08
2023-05-22T06:08:19.003Z,17.15
2023-05-22T06:09:14.402Z,17.23
2023-05-22T06:10:09.950Z,17.29
2023-05-22T06:11:05.464Z,17.35
2023-05-22T06:12:00.387Z,17.39
2023-05-22T06:12:55.509Z,17.49
2023-05-22T06:13:50.599Z,17.54
2023-05-22T06:14:45.637Z,17.64
2023-05-22T06:15:40.625Z,17.72
2023-05-22T06:16:35.899Z,17.81
2023-05-22T06:17:30.906Z,17.87
2023-05-22T06:18:26.031Z,17.90
2023-05-22T06:19:21.064Z,17.92
2023-05-22T06:20:16.174Z,18.02
2023-05-22T06:21:11.442Z,18.10
2023-05-22T06:22:06.284Z,18.19
2023-05-22T06:23:01.376Z,18.27
2023-05-22T06:23:56.405Z,18.37
2023-05-22T06:24:51.482Z,18.39
2023-05-22T06:25:46.751Z,18.38
2023-05-22T06:28:09.699Z,18.10
2023-05-22T06:29:02.236Z,18.30
2023-05-22T06:29:58.391Z,18.38
2023-05-22T06:30:53.305Z,18.50
2023-05-22T06:31:48.520Z,18.61
2023-05-22T06:32:44.118Z,18.74
2023-05-22T06:33:39.429Z,18.86
2023-05-22T06:34:34.834Z,18.88
2023-05-22T06:35:30.325Z,18.87
2023-05-22T06:36:25.600Z,18.81
2023-05-22T06:37:20.954Z,18.73
2023-05-22T06:38:16.608Z,18.77
2023-05-22T06:39:12.034Z,18.85
2023-05-22T06:40:07.408Z,18.89
2023-05-22T06:41:02.923Z,18.97
2023-05-22T06:41:58.225Z,19.06
2023-05-22T06:42:53.578Z,19.16
2023-05-22T06:43:48.994Z,19.19
2023-05-22T06:44:44.397Z,19.24
2023-05-22T06:45:40.239Z,19.37
2023-05-22T06:46:35.500Z,19.46
2023-05-22T06:47:30.922Z,19.46
2023-05-22T06:48:26.213Z,19.47
2023-05-22T06:49:21.736Z,19.49
2023-05-22T06:50:17.096Z,19.47
2023-05-22T06:51:12.671Z,19.59
2023-05-22T06:52:08.189Z,19.61
2023-05-22T06:53:03.550Z,19.53
2023-05-22T06:53:58.902Z,19.52
2023-05-22T06:54:54.323Z,19.52
2023-05-22T06:55:49.843Z,19.61
2023-05-22T06:56:45.216Z,19.76
2023-05-22T06:57:40.489Z,19.96
2023-05-22T06:58:35.924Z,20.11
2023-05-22T06:59:31.317Z,20.19
2023-05-22T07:00:26.739Z,20.22
2023-05-22T07:01:22.180Z,20.24
2023-05-22T07:02:17.642Z,20.29
2023-05-22T07:03:12.942Z,20.24
2023-05-22T07:04:08.293Z,20.22
2023-05-22T07:05:03.833Z,20.23
2023-05-22T07:05:59.279Z,20.19
2023-05-22T07:06:54.664Z,20.27
2023-05-22T07:07:50.048Z,20.32
2023-05-22T07:08:45.569Z,20.43
2023-05-22T07:09:41.027Z,20.59
2023-05-22T07:10:36.467Z,20.73
2023-05-22T07:11:31.861Z,20.77
2023-05-22T07:12:27.354Z,20.70
2023-05-22T07:13:22.697Z,20.68
2023-05-22T07:14:18.089Z,20.75
2023-05-22T07:15:13.622Z,20.73
2023-05-22T07:16:08.996Z,20.68
2023-05-22T07:17:04.485Z,20.60
2023-05-22T07:18:00.260Z,20.62
2023-05-22T07:18:55.801Z,20.66
2023-05-22T07:19:51.095Z,20.71
2023-05-22T07:20:46.597Z,20.87
2023-05-22T07:21:41.998Z,20.95
2023-05-22T07:22:37.465Z,21.08
2023-05-22T07:23:33.087Z,21.02
2023-05-22T07:24:28.391Z,20.97
2023-05-22T07:25:23.773Z,21.05
2023-05-22T07:26:19.256Z,21.05
2023-05-22T07:27:14.623Z,21.03
2023-05-22T07:28:10.009Z,21.09
2023-05-22T07:29:05.518Z,21.13
2023-05-22T07:30:00.962Z,21.20
2023-05-22T07:30:56.392Z,21.25
2023-05-22T07:31:52.198Z,21.37
2023-05-22T07:32:47.465Z,21.46
2023-05-22T07:33:42.831Z,21.57
2023-05-22T07:34:38.223Z,21.75
2023-05-22T07:35:34.009Z,21.79
2023-05-22T07:36:29.290Z,21.69
2023-05-22T07:37:24.558Z,21.66
2023-05-22T07:38:19.996Z,21.57
2023-05-22T07:39:15.375Z,21.50
2023-05-22T07:40:10.740Z,21.60
2023-05-22T07:41:06.225Z,21.63
2023-05-22T07:42:02.153Z,21.61
2023-05-22T07:42:57.033Z,21.61
2023-05-22T07:43:52.421Z,21.62
2023-05-22T07:44:47.821Z,21.59
2023-05-22T07:45:43.392Z,21.58
2023-05-22T07:46:38.593Z,21.68
2023-05-22T07:47:34.027Z,21.82
2023-05-22T07:48:29.383Z,21.91
2023-05-22T07:49:24.903Z,22.09
2023-05-22T07:50:20.396Z,22.19
2023-05-22T07:51:15.832Z,22.08
2023-05-22T07:52:11.179Z,22.03
2023-05-22T07:53:06.724Z,22.03
2023-05-22T07:54:02.168Z,22.07
2023-05-22T07:54:57.640Z,22.21
2023-05-22T07:55:53.265Z,22.25
2023-05-22T07:56:48.457Z,22.27
2023-05-22T07:57:43.844Z,22.30
2023-05-22T07:58:39.267Z,22.37
2023-05-22T07:59:34.787Z,22.40
2023-05-22T08:00:30.201Z,22.44
2023-05-22T08:01:25.598Z,22.45
2023-05-22T08:02:21.094Z,22.40
2023-05-22T08:03:17.746Z,22.37
2023-05-22T08:04:12.173Z,22.33
2023-05-22T08:05:07.387Z,22.39
2023-05-22T08:06:02.936Z,22.46
2023-05-22T08:06:58.430Z,22.56
2023-05-22T08:07:54.045Z,22.72
2023-05-22T08:08:49.436Z,22.84
2023-05-22T08:09:44.907Z,22.96
2023-05-22T08:11:36.600Z,23.01
2023-05-22T08:12:31.249Z,22.93
2023-05-22T08:13:26.751Z,22.96
2023-05-22T08:14:22.163Z,22.98
2023-05-22T08:15:17.553Z,23.10
2023-05-22T08:16:13.082Z,23.13
2023-05-22T08:17:08.290Z,23.10
2023-05-22T08:18:03.670Z,23.06
2023-05-22T08:18:59.277Z,23.13
2023-05-22T08:19:54.860Z,23.16
2023-05-22T08:20:50.201Z,22.96
2023-05-22T08:21:45.810Z,23.00
2023-05-22T08:22:41.188Z,23.11
2023-05-22T08:23:36.576Z,23.19
2023-05-22T08:24:32.123Z,23.12
2023-05-22T08:25:27.597Z,23.03
2023-05-22T08:26:23.087Z,22.98
2023-05-22T08:27:18.376Z,23.04
2023-05-22T08:28:13.880Z,22.98
2023-05-22T08:29:09.261Z,23.01
2023-05-22T08:30:04.750Z,23.13
2023-05-22T08:30:59.993Z,23.20
2023-05-22T08:31:55.496Z,23.19
2023-05-22T08:32:50.715Z,23.09
2023-05-22T08:33:46.197Z,23.06
2023-05-22T08:34:41.572Z,23.12
2023-05-22T08:35:36.926Z,23.26
2023-05-22T08:36:32.371Z,23.29
2023-05-22T08:37:27.743Z,23.39
2023-05-22T08:38:23.208Z,23.38
2023-05-22T08:39:18.633Z,23.30
2023-05-22T08:40:14.027Z,23.40
2023-05-22T08:41:09.400Z,23.42
2023-05-22T08:42:04.896Z,23.48
2023-05-22T08:43:00.611Z,23.47
2023-05-22T08:43:56.000Z,23.51
2023-05-22T08:44:51.429Z,23.57
2023-05-22T08:45:46.766Z,23.68
2023-05-22T08:46:42.141Z,23.81
2023-05-22T08:47:37.546Z,23.87
2023-05-22T08:48:33.035Z,23.95
2023-05-22T08:49:28.423Z,24.09
2023-05-22T08:50:23.792Z,24.19
2023-05-22T08:51:19.148Z,23.97
2023-05-22T08:52:14.726Z,23.91
2023-05-22T08:53:10.063Z,23.78
2023-05-22T08:54:05.720Z,23.73
2023-05-22T08:55:01.051Z,23.65
2023-05-22T08:55:56.684Z,23.71
2023-05-22T08:56:56.631Z,23.79
2023-05-22T08:57:48.557Z,23.94
2023-05-22T08:58:43.240Z,24.02
2023-05-22T08:59:38.654Z,24.06
2023-05-22T09:00:34.157Z,24.11
2023-05-22T09:01:29.662Z,24.11
2023-05-22T09:02:25.267Z,24.09
2023-05-22T09:03:20.656Z,23.99
2023-05-22T09:04:16.067Z,24.01
2023-05-22T09:05:11.456Z,24.01
2023-05-22T09:06:06.976Z,24.08
2023-05-22T09:07:02.702Z,24.17
2023-05-22T09:08:02.641Z,24.14
2023-05-22T09:08:54.692Z,24.15
2023-05-22T09:09:48.937Z,24.19
2023-05-22T09:10:44.677Z,24.19
2023-05-22T09:11:40.109Z,24.35
2023-05-22T09:12:35.638Z,24.47
2023-05-22T09:13:31.280Z,24.55
2023-05-22T09:14:26.959Z,24.60
2023-05-22T09:15:22.209Z,24.65
2023-05-22T09:16:17.718Z,24.51
2023-05-22T09:17:13.162Z,24.45
2023-05-22T09:18:08.736Z,24.48
2023-05-22T09:19:04.338Z,24.49
2023-05-22T09:19:59.707Z,24.34
2023-05-22T09:20:55.118Z,24.29
2023-05-22T09:21:50.725Z,24.34
2023-05-22T09:22:45.995Z,24.45
2023-05-22T09:23:41.662Z,24.57
2023-05-22T09:24:36.841Z,24.67
2023-05-22T09:25:32.253Z,24.76
2023-05-22T09:26:27.665Z,24.86
2023-05-22T09:27:23.176Z,24.97
2023-05-22T09:28:18.527Z,25.05
2023-05-22T09:29:13.942Z,25.05
2023-05-22T09:30:09.694Z,25.06
2023-05-22T09:31:04.957Z,25.01
2023-05-22T09:32:00.289Z,24.98
2023-05-22T09:32:55.837Z,25.06
2023-05-22T09:33:51.290Z,25.25
2023-05-22T09:34:46.672Z,25.38
2023-05-22T09:35:42.258Z,25.41
2023-05-22T09:36:37.579Z,25.52
2023-05-22T09:37:32.917Z,25.50
2023-05-22T09:38:28.338Z,25.53
2023-05-22T09:39:23.724Z,25.48
2023-05-22T09:40:19.135Z,25.40
2023-05-22T09:41:14.406Z,25.38
2023-05-22T09:42:09.905Z,25.30
2023-05-22T09:43:05.483Z,25.20
2023-05-22T09:44:02.070Z,25.18
2023-05-22T09:44:56.531Z,25.10
2023-05-22T09:45:51.917Z,25.12
2023-05-22T09:46:47.811Z,25.17
2023-05-22T09:47:43.044Z,24.98
2023-05-22T09:48:38.433Z,24.88
2023-05-22T09:49:34.075Z,25.00
2023-05-22T09:50:29.453Z,25.20
2023-05-22T09:51:24.747Z,25.32
2023-05-22T09:52:20.074Z,25.29
2023-05-22T09:53:15.568Z,25.25
2023-05-22T09:54:10.808Z,25.35
2023-05-22T09:55:06.239Z,25.44
2023-05-22T09:56:01.722Z,25.52
2023-05-22T09:56:57.327Z,25.63
2023-05-22T09:57:52.545Z,25.50
2023-05-22T09:58:48.080Z,25.56
2023-05-22T09:59:43.690Z,25.71
2023-05-22T10:00:39.503Z,25.79
2023-05-22T10:01:34.448Z,25.87
2023-05-22T10:02:29.856Z,26.02
2023-05-22T10:03:25.287Z,26.05
2023-05-22T10:04:20.631Z,26.02
2023-05-22T10:05:16.056Z,26.11
2023-05-22T10:06:11.717Z,26.23
2023-05-22T10:07:07.115Z,26.30
2023-05-22T10:08:02.627Z,26.42
2023-05-22T10:08:58.155Z,26.49
2023-05-22T10:09:53.413Z,26.61
2023-05-22T10:10:48.776Z,26.71
2023-05-22T10:11:44.369Z,26.80
2023-05-22T10:12:39.696Z,26.88
2023-05-22T10:13:35.160Z,26.87
2023-05-22T10:14:31.049Z,26.90
2023-05-22T10:15:26.252Z,26.88
2023-05-22T10:16:21.714Z,26.80
2023-05-22T10:17:17.129Z,26.83
2023-05-22T10:18:12.522Z,26.86
2023-05-22T10:19:08.106Z,26.90
2023-05-22T10:20:03.472Z,26.92
2023-05-22T10:20:59.089Z,27.04
2023-05-22T10:21:54.681Z,27.25
2023-05-22T10:22:50.246Z,27.54
2023-05-22T10:23:45.706Z,27.56
2023-05-22T10:24:41.240Z,27.44
2023-05-22T10:25:36.570Z,27.30
2023-05-22T10:26:31.940Z,27.26
2023-05-22T10:27:27.498Z,27.26
2023-05-22T10:28:22.876Z,27.28
2023-05-22T10:29:18.352Z,27.15
2023-05-22T10:30:13.718Z,26.91
2023-05-22T10:31:09.101Z,26.99
2023-05-22T10:32:04.464Z,27.17
2023-05-22T10:33:00.054Z,27.02
2023-05-22T10:33:55.758Z,26.97
2023-05-22T10:34:51.166Z,27.07
2023-05-22T10:35:46.738Z,27.24
2023-05-22T10:36:42.118Z,27.39
2023-05-22T10:37:37.623Z,27.51
2023-05-22T10:38:33.027Z,27.61
2023-05-22T10:39:28.660Z,27.52
2023-05-22T10:40:24.123Z,27.50
2023-05-22T10:41:19.550Z,27.72
2023-05-22T10:42:15.081Z,27.97
2023-05-22T10:43:10.607Z,28.21
2023-05-22T10:44:06.085Z,28.44
2023-05-22T10:45:01.615Z,28.60
2023-05-22T10:45:56.957Z,28.56
2023-05-22T10:46:52.363Z,28.58
2023-05-22T10:47:47.839Z,28.47
2023-05-22T10:48:43.106Z,28.23
2023-05-22T10:49:38.762Z,28.04
2023-05-22T10:50:34.175Z,27.94
2023-05-22T10:51:29.642Z,27.89
2023-05-22T10:52:25.093Z,27.92
2023-05-22T10:53:20.563Z,27.78
2023-05-22T10:54:16.195Z,27.67
2023-05-22T10:55:11.518Z,27.56
2023-05-22T10:56:07.031Z,27.50
2023-05-22T10:57:02.375Z,27.48
2023-05-22T10:57:57.729Z,27.50
2023-05-22T10:58:53.235Z,27.50
2023-05-22T10:59:48.797Z,27.50
2023-05-22T11:00:44.426Z,27.49
2023-05-22T11:01:40.045Z,27.44
2023-05-22T11:02:35.424Z,27.57
2023-05-22T11:03:31.182Z,27.71
2023-05-22T11:04:26.400Z,27.78
2023-05-22T11:05:21.879Z,27.82
2023-05-22T11:06:17.458Z,28.03
2023-05-22T11:07:12.858Z,28.21
2023-05-22T11:08:08.367Z,28.21
2023-05-22T11:09:03.807Z,28.40
2023-05-22T11:09:59.301Z,28.54
2023-05-22T11:10:54.733Z,28.52
2023-05-22T11:11:50.283Z,28.59
2023-05-22T11:12:45.664Z,28.49
2023-05-22T11:13:41.041Z,28.27
2023-05-22T11:14:36.603Z,28.00
2023-05-22T11:15:32.123Z,27.77
2023-05-22T11:16:27.487Z,27.72
2023-05-22T11:17:22.770Z,27.79
2023-05-22T11:18:18.321Z,27.94
2023-05-22T11:19:23.513Z,28.15
2023-05-22T11:20:10.463Z,28.34
2023-05-22T11:21:04.751Z,28.50
2023-05-22T11:22:00.167Z,28.69
2023-05-22T11:22:55.628Z,28.83
2023-05-22T11:23:51.090Z,28.88
2023-05-22T11:24:46.561Z,28.64
2023-05-22T11:25:42.339Z,28.19
2023-05-22T11:26:37.491Z,27.92
2023-05-22T11:27:33.037Z,27.79
2023-05-22T11:28:28.507Z,27.91
2023-05-22T11:29:23.967Z,28.08
2023-05-22T11:30:19.510Z,28.30
2023-05-22T11:31:14.860Z,28.50
2023-05-22T11:32:10.328Z,28.22
2023-05-22T11:33:05.812Z,28.08
2023-05-22T11:34:01.320Z,28.25
2023-05-22T11:34:56.851Z,28.50
2023-05-22T11:35:52.529Z,28.64
2023-05-22T11:36:47.864Z,28.71
2023-05-22T11:37:43.257Z,28.56
2023-05-22T11:38:38.705Z,28.59
2023-05-22T11:39:34.191Z,28.81
2023-05-22T11:40:29.698Z,28.82
2023-05-22T11:41:24.897Z,28.93
2023-05-22T11:42:20.299Z,29.04
2023-05-22T11:43:15.798Z,29.10
2023-05-22T11:44:11.315Z,29.17
2023-05-22T11:45:06.827Z,28.73
2023-05-22T11:46:02.330Z,28.32
2023-05-22T11:46:57.625Z,28.22
2023-05-22T11:47:53.154Z,28.17
2023-05-22T11:48:48.678Z,28.39
2023-05-22T11:49:44.166Z,28.60
2023-05-22T11:50:42.728Z,28.82
2023-05-22T11:51:35.247Z,29.12
2023-05-22T11:52:30.615Z,29.42
2023-05-22T11:53:25.653Z,29.46
2023-05-22T11:54:20.779Z,29.14
2023-05-22T11:55:15.802Z,28.73
2023-05-22T11:56:10.932Z,28.45
2023-05-22T11:57:06.038Z,28.43
2023-05-22T11:58:01.127Z,28.60